Time;durP1;ratioP1;P1;durP2;ratioP2;P2;SDS_P1;SDS_P2;PMS_P1;PMS_P2;Temp;Humidity;BMP_temperature;BMP_pressure;BME280_temperature;BME280_humidity;BME280_pressure;Samples;Min_cycle;Max_cycle;Signal;HPM_P1;HPM_P2
2024/04/25 00:00:36;;;;;;;9.88;2.90;;;7.00;99.90;;;;;;5392550;26;20055;-69
2024/04/25 00:03:04;;;;;;;4.82;2.55;;;7.00;99.90;;;;;;5396128;26;20711;-69
2024/04/25 00:05:31;;;;;;;10.63;3.40;;;6.90;99.90;;;;;;5392596;26;20008;-69
2024/04/25 00:07:58;;;;;;;9.15;2.13;;;6.90;99.90;;;;;;5377160;26;20000;-70
2024/04/25 00:10:25;;;;;;;13.35;2.60;;;6.90;99.90;;;;;;5389610;26;20536;-70
2024/04/25 00:12:52;;;;;;;5.68;1.90;;;6.80;99.90;;;;;;5402183;26;20011;-69
2024/04/25 00:15:19;;;;;;;13.68;4.32;;;6.80;99.90;;;;;;5385769;26;20004;-69
2024/04/25 00:17:45;;;;;;;8.00;2.30;;;6.80;99.90;;;;;;5386057;26;20006;-70
2024/04/25 00:20:13;;;;;;;10.20;2.80;;;6.70;99.90;;;;;;5391716;26;20003;-69
2024/04/25 00:22:40;;;;;;;9.20;3.03;;;6.70;99.90;;;;;;5386258;26;20437;-69
2024/04/25 00:25:06;;;;;;;9.70;2.60;;;6.60;99.90;;;;;;5392896;26;20004;-70
2024/04/25 00:27:34;;;;;;;11.85;4.55;;;6.60;99.90;;;;;;5395810;26;20155;-69
2024/04/25 00:30:01;;;;;;;6.25;2.70;;;6.60;99.90;;;;;;5385102;26;20011;-70
2024/04/25 00:32:28;;;;;;;8.48;2.00;;;6.60;99.90;;;;;;5397959;26;20055;-70
2024/04/25 00:34:57;;;;;;;12.02;3.75;;;6.60;99.90;;;;;;5393740;26;20018;-69
2024/04/25 00:37:25;;;;;;;7.57;2.63;;;6.50;99.90;;;;;;5396157;26;20015;-69
2024/04/25 00:39:54;;;;;;;9.60;2.83;;;6.50;99.90;;;;;;5388429;26;20020;-70
2024/04/25 00:42:22;;;;;;;4.50;2.50;;;6.40;99.90;;;;;;5379381;26;20009;-69
2024/04/25 00:44:49;;;;;;;8.63;3.33;;;6.50;99.90;;;;;;5384244;26;20008;-70
2024/04/25 00:47:21;;;;;;;7.13;3.67;;;6.40;99.90;;;;;;5391730;26;20005;-70
2024/04/25 00:49:49;;;;;;;9.90;3.35;;;6.40;99.90;;;;;;5395086;26;20018;-70
2024/04/25 00:52:18;;;;;;;9.93;3.72;;;6.30;99.90;;;;;;5341275;26;20471;-71
2024/04/25 00:54:45;;;;;;;7.40;3.40;;;6.40;99.90;;;;;;5358078;26;20000;-70
2024/04/25 00:57:12;;;;;;;9.10;3.03;;;6.40;99.90;;;;;;5365472;26;20004;-70
2024/04/25 00:59:43;;;;;;;9.73;2.65;;;6.40;99.90;;;;;;5383750;26;20000;-70
2024/04/25 01:02:10;;;;;;;7.40;2.70;;;6.40;99.90;;;;;;5392380;26;20000;-70
2024/04/25 01:04:37;;;;;;;5.70;2.42;;;6.40;99.90;;;;;;5395693;26;20004;-70
2024/04/25 01:07:04;;;;;;;6.88;3.10;;;6.40;99.90;;;;;;5393757;26;20535;-70
2024/04/25 01:09:31;;;;;;;12.68;3.85;;;6.50;99.90;;;;;;5381753;26;20015;-70
2024/04/25 01:11:58;;;;;;;11.10;3.40;;;6.40;99.90;;;;;;5385109;26;20015;-70
2024/04/25 01:14:25;;;;;;;9.05;2.80;;;6.30;99.90;;;;;;5379660;26;20000;-70
2024/04/25 01:16:52;;;;;;;9.45;3.08;;;6.10;99.90;;;;;;5392117;26;20065;-70
2024/04/25 01:19:20;;;;;;;11.18;3.53;;;6.20;99.90;;;;;;5386414;26;20003;-71
2024/04/25 01:21:47;;;;;;;9.05;3.30;;;6.20;99.90;;;;;;5381595;26;20152;-69
2024/04/25 01:24:18;;;;;;;10.20;3.50;;;6.20;99.90;;;;;;5382375;26;20046;-69
2024/04/25 01:26:45;;;;;;;9.63;3.13;;;6.20;99.90;;;;;;5393791;26;20003;-72
2024/04/25 01:29:14;;;;;;;7.93;2.72;;;6.20;99.90;;;;;;5388144;26;20000;-70
2024/04/25 01:31:42;;;;;;;14.13;3.35;;;6.20;99.90;;;;;;5365365;26;20007;-71
2024/04/25 01:34:10;;;;;;;9.57;4.00;;;6.10;99.90;;;;;;5381486;26;19996;-70
2024/04/25 01:36:41;;;;;;;11.15;3.53;;;6.20;99.90;;;;;;5384755;26;20005;-70
2024/04/25 01:39:09;;;;;;;8.00;3.70;;;6.10;99.90;;;;;;5382239;26;20001;-69
2024/04/25 01:41:36;;;;;;;8.20;3.72;;;6.10;99.90;;;;;;5378906;26;20081;-70
2024/04/25 01:44:04;;;;;;;10.10;3.60;;;6.10;99.90;;;;;;5387685;26;20036;-70
2024/04/25 01:46:32;;;;;;;14.60;3.70;;;6.00;99.90;;;;;;5381221;26;20031;-70
2024/04/25 01:49:00;;;;;;;7.45;3.70;;;6.00;99.90;;;;;;5382134;26;20553;-71
2024/04/25 01:51:30;;;;;;;10.57;3.08;;;6.00;99.90;;;;;;5397474;26;20012;-71
2024/04/25 01:53:57;;;;;;;8.20;3.75;;;6.00;99.90;;;;;;5391084;26;20069;-69
2024/04/25 01:56:24;;;;;;;21.98;5.57;;;5.90;99.90;;;;;;5401998;26;20046;-69
2024/04/25 01:58:52;;;;;;;9.80;3.63;;;5.90;99.90;;;;;;5382464;26;20005;-69
2024/04/25 02:01:20;;;;;;;8.73;3.53;;;5.90;99.90;;;;;;5399811;26;20004;-69
2024/04/25 02:03:47;;;;;;;10.00;4.10;;;5.90;99.90;;;;;;5391271;26;19999;-69
2024/04/25 02:06:14;;;;;;;8.25;3.03;;;5.90;99.90;;;;;;5385483;26;20011;-70
2024/04/25 02:08:41;;;;;;;11.13;5.30;;;5.80;99.90;;;;;;5383015;26;20004;-70
2024/04/25 02:11:08;;;;;;;9.68;3.00;;;5.80;99.90;;;;;;5393497;26;20004;-70
2024/04/25 02:13:35;;;;;;;10.80;4.53;;;5.80;99.90;;;;;;5380903;26;20077;-70
2024/04/25 02:16:02;;;;;;;6.80;3.00;;;5.70;99.90;;;;;;5383041;26;20010;-70
2024/04/25 02:18:29;;;;;;;7.88;3.35;;;5.70;99.90;;;;;;5399236;26;20000;-70
2024/04/25 02:26:27;;;;;;;8.68;3.03;;;5.70;99.90;;;;;;5384633;26;20530;-70
2024/04/25 02:28:54;;;;;;;8.18;2.88;;;5.70;99.90;;;;;;5392272;26;20004;-70
2024/04/25 02:31:25;;;;;;;6.65;3.25;;;5.60;99.90;;;;;;5397837;26;20008;-72
2024/04/25 02:33:52;;;;;;;9.38;3.15;;;5.50;99.90;;;;;;5379693;26;20019;-70
2024/04/25 02:36:19;;;;;;;11.75;4.43;;;5.40;99.90;;;;;;5380962;26;20065;-70
2024/04/25 02:38:46;;;;;;;8.68;3.28;;;5.40;99.90;;;;;;5383517;26;20080;-71
2024/04/25 02:41:13;;;;;;;9.80;3.03;;;5.50;99.90;;;;;;5393985;26;20005;-71
2024/04/25 02:43:40;;;;;;;5.20;2.85;;;5.50;99.90;;;;;;5412461;26;20016;-71
2024/04/25 02:46:10;;;;;;;12.30;2.72;;;5.60;99.90;;;;;;5395571;26;20662;-73
2024/04/25 02:48:36;;;;;;;12.13;3.67;;;5.60;99.90;;;;;;5379205;26;20013;-70
2024/04/25 02:51:04;;;;;;;10.10;3.15;;;5.60;99.90;;;;;;5389009;26;20077;-71
2024/04/25 02:53:31;;;;;;;7.97;3.22;;;5.50;99.90;;;;;;5383829;26;20011;-71
2024/04/25 02:55:58;;;;;;;6.53;3.20;;;5.50;99.90;;;;;;5383896;26;20004;-71
2024/04/25 02:58:25;;;;;;;7.07;3.22;;;5.50;99.90;;;;;;5347669;26;20014;-71
2024/04/25 03:01:00;;;;;;;13.10;3.60;;;5.50;99.90;;;;;;5399430;26;20003;-71
2024/04/25 03:03:27;;;;;;;10.85;3.58;;;5.50;99.90;;;;;;5389909;26;20667;-70
2024/04/25 03:05:55;;;;;;;9.35;3.33;;;5.40;99.90;;;;;;5395875;26;20065;-70
2024/04/25 03:08:22;;;;;;;8.18;3.88;;;5.30;99.90;;;;;;5384776;26;20017;-71
2024/04/25 03:10:49;;;;;;;9.80;3.17;;;5.30;99.90;;;;;;5400934;26;20049;-71
2024/04/25 03:13:16;;;;;;;10.95;3.28;;;5.30;99.90;;;;;;5381938;26;20102;-71
2024/04/25 03:15:43;;;;;;;7.07;3.50;;;5.30;99.90;;;;;;5390861;26;20007;-71
2024/04/25 03:18:10;;;;;;;8.23;3.75;;;5.20;99.90;;;;;;5396940;26;20018;-71
2024/04/25 03:20:37;;;;;;;8.05;3.65;;;5.20;99.90;;;;;;5388510;26;20069;-71
2024/04/25 03:23:04;;;;;;;9.80;3.90;;;5.10;99.90;;;;;;5393898;26;20020;-70
2024/04/25 03:25:31;;;;;;;10.88;3.33;;;5.10;99.90;;;;;;5386035;26;20007;-71
2024/04/25 03:27:58;;;;;;;10.52;4.10;;;5.10;99.90;;;;;;5392407;26;20008;-71
2024/04/25 03:30:25;;;;;;;9.38;2.70;;;5.10;99.90;;;;;;5399578;26;20050;-70
2024/04/25 03:32:52;;;;;;;6.03;2.97;;;5.00;99.90;;;;;;5387301;26;20015;-70
2024/04/25 03:35:19;;;;;;;11.55;3.50;;;5.00;99.90;;;;;;5379934;26;20113;-70
2024/04/25 03:37:46;;;;;;;8.02;2.95;;;5.00;99.90;;;;;;5396625;26;20004;-70
2024/04/25 03:40:13;;;;;;;11.52;4.05;;;5.00;99.90;;;;;;5398764;26;20004;-70
2024/04/25 03:42:40;;;;;;;7.70;2.70;;;5.00;99.90;;;;;;5398294;26;19999;-71
2024/04/25 03:45:07;;;;;;;11.77;3.58;;;5.00;99.90;;;;;;5376170;26;20008;-69
2024/04/25 03:47:34;;;;;;;9.63;4.03;;;5.00;99.90;;;;;;5388176;26;20385;-71
2024/04/25 03:50:01;;;;;;;5.10;2.30;;;5.00;99.90;;;;;;5384562;26;19999;-69
2024/04/25 03:52:28;;;;;;;6.63;2.92;;;5.00;99.90;;;;;;5393873;26;20009;-69
2024/04/25 03:54:55;;;;;;;6.80;3.15;;;5.10;99.90;;;;;;5406192;26;20014;-69
2024/04/25 03:57:22;;;;;;;4.57;2.90;;;5.10;99.90;;;;;;5382737;26;20015;-69
2024/04/25 03:59:49;;;;;;;11.57;3.92;;;5.10;99.90;;;;;;5407894;26;20047;-69
2024/04/25 04:02:16;;;;;;;6.78;2.83;;;5.10;99.90;;;;;;5385738;26;20077;-69
2024/04/25 04:04:43;;;;;;;6.97;2.88;;;5.20;99.90;;;;;;5379366;26;20054;-69
2024/04/25 04:07:10;;;;;;;10.15;2.83;;;5.20;99.90;;;;;;5379120;26;20015;-70
2024/04/25 04:09:37;;;;;;;11.18;4.47;;;5.20;99.90;;;;;;5377355;26;20004;-70
2024/04/25 04:12:04;;;;;;;8.52;3.25;;;5.30;99.90;;;;;;5385905;26;20010;-70
2024/04/25 04:14:31;;;;;;;7.18;2.53;;;5.30;99.90;;;;;;5391752;26;20008;-68
2024/04/25 04:16:58;;;;;;;11.93;3.60;;;5.30;99.90;;;;;;5377728;26;20018;-70
2024/04/25 04:19:25;;;;;;;9.10;3.60;;;5.30;99.90;;;;;;5382383;26;20000;-72
2024/04/25 04:21:51;;;;;;;10.23;3.00;;;5.30;99.90;;;;;;5376329;26;20007;-71
2024/04/25 04:24:19;;;;;;;9.68;3.33;;;5.30;99.90;;;;;;5386993;26;20007;-71
2024/04/25 04:26:46;;;;;;;7.65;2.58;;;5.30;99.90;;;;;;5389539;26;20016;-71
2024/04/25 04:29:13;;;;;;;9.40;2.40;;;5.40;99.90;;;;;;5394497;26;20019;-69
2024/04/25 04:31:40;;;;;;;6.82;2.72;;;5.40;99.90;;;;;;5404432;26;20004;-70
2024/04/25 04:34:07;;;;;;;7.70;2.63;;;5.40;99.90;;;;;;5395404;26;20043;-70
2024/04/25 04:36:34;;;;;;;12.38;3.47;;;5.40;99.90;;;;;;5372879;26;20012;-70
2024/04/25 04:39:02;;;;;;;10.20;2.50;;;5.50;99.90;;;;;;5382682;26;20008;-70
2024/04/25 04:41:29;;;;;;;10.75;2.10;;;5.50;99.90;;;;;;5383342;26;20000;-70
2024/04/25 04:43:57;;;;;;;9.27;2.25;;;5.50;99.90;;;;;;5388984;26;20036;-70
2024/04/25 04:46:24;;;;;;;9.55;2.13;;;5.60;99.90;;;;;;5384446;26;19996;-70
2024/04/25 04:48:51;;;;;;;10.30;2.15;;;5.60;99.90;;;;;;5392692;26;20490;-70
2024/04/25 04:51:18;;;;;;;11.43;1.73;;;5.60;99.90;;;;;;5381084;26;20008;-70
2024/04/25 04:53:46;;;;;;;8.60;2.05;;;5.70;99.90;;;;;;5383183;26;20851;-70
2024/04/25 04:56:13;;;;;;;6.40;1.98;;;5.70;99.90;;;;;;5406529;26;20035;-70
2024/04/25 04:58:40;;;;;;;5.55;1.65;;;5.80;99.90;;;;;;5383529;26;20022;-70
2024/04/25 05:01:08;;;;;;;7.30;1.52;;;5.80;99.90;;;;;;5396611;26;20317;-70
2024/04/25 05:03:35;;;;;;;7.07;2.25;;;5.90;99.90;;;;;;5388956;26;20482;-70
2024/04/25 05:06:02;;;;;;;4.82;1.45;;;5.90;99.90;;;;;;5385093;26;20014;-70
2024/04/25 05:08:38;;;;;;;7.45;1.90;;;6.00;99.90;;;;;;5378598;26;20047;-70
2024/04/25 05:11:05;;;;;;;9.70;1.65;;;6.00;99.90;;;;;;5378994;26;20015;-70
2024/04/25 05:13:32;;;;;;;7.88;1.55;;;6.10;99.90;;;;;;5403521;26;20081;-69
2024/04/25 05:15:59;;;;;;;10.23;1.88;;;6.10;99.90;;;;;;5388987;26;19996;-69
2024/04/25 05:18:26;;;;;;;6.85;1.50;;;6.20;99.90;;;;;;5392656;26;20376;-69
2024/04/25 05:20:53;;;;;;;6.63;2.13;;;6.20;99.90;;;;;;5398787;26;20011;-70
2024/04/25 05:23:19;;;;;;;9.75;1.42;;;6.20;99.90;;;;;;5390637;26;20074;-69
2024/04/25 05:25:49;;;;;;;6.60;1.42;;;6.20;99.90;;;;;;5386322;26;20048;-70
2024/04/25 05:28:16;;;;;;;11.40;2.00;;;6.30;99.90;;;;;;5385049;26;20012;-70
2024/04/25 05:30:43;;;;;;;6.40;1.88;;;6.30;99.90;;;;;;5387216;26;20462;-71
2024/04/25 05:33:10;;;;;;;13.98;2.63;;;6.40;99.90;;;;;;5390485;26;20012;-70
2024/04/25 05:35:37;;;;;;;5.65;2.05;;;6.50;99.90;;;;;;5395111;26;20007;-70
2024/04/25 05:38:04;;;;;;;7.30;2.60;;;6.50;99.90;;;;;;5392301;26;20016;-70
2024/04/25 05:40:32;;;;;;;7.47;1.40;;;6.50;99.90;;;;;;5392219;26;20401;-69
2024/04/25 05:42:59;;;;;;;6.72;1.75;;;6.60;99.90;;;;;;5396538;26;20076;-69
2024/04/25 05:45:26;;;;;;;10.50;2.30;;;6.60;99.90;;;;;;5399983;26;20033;-69
2024/04/25 05:47:53;;;;;;;4.93;1.20;;;6.70;99.90;;;;;;5397318;26;20004;-69
2024/04/25 05:50:20;;;;;;;12.23;1.98;;;6.70;99.90;;;;;;5379003;26;20045;-69
2024/04/25 05:52:47;;;;;;;3.53;1.15;;;6.80;99.90;;;;;;5394665;26;20412;-70
2024/04/25 05:55:15;;;;;;;4.47;1.80;;;6.80;99.90;;;;;;5402909;26;20408;-70
2024/04/25 05:57:41;;;;;;;14.73;2.63;;;6.90;99.90;;;;;;5375891;26;20004;-72
2024/04/25 06:00:09;;;;;;;6.47;2.20;;;6.90;99.90;;;;;;5397691;26;20093;-71
2024/04/25 06:02:36;;;;;;;4.85;2.35;;;7.00;99.90;;;;;;5391780;26;20016;-70
2024/04/25 06:05:03;;;;;;;5.57;1.77;;;7.00;99.90;;;;;;5394325;26;20016;-70
2024/04/25 06:07:30;;;;;;;5.13;2.10;;;7.10;99.90;;;;;;5393856;26;20003;-70
2024/04/25 06:09:57;;;;;;;10.25;1.98;;;7.20;99.90;;;;;;5385725;26;20078;-70
2024/04/25 06:12:25;;;;;;;9.50;1.60;;;7.20;99.90;;;;;;5389257;26;20000;-70
2024/04/25 06:14:52;;;;;;;6.35;2.20;;;7.30;99.90;;;;;;5404085;26;20012;-71
2024/04/25 06:17:19;;;;;;;13.07;1.98;;;7.40;99.90;;;;;;5392882;26;20014;-71
2024/04/25 06:19:46;;;;;;;10.52;1.83;;;7.40;99.90;;;;;;5393900;26;20006;-71
2024/04/25 06:22:13;;;;;;;9.40;1.85;;;7.50;99.90;;;;;;5393188;26;20060;-71
2024/04/25 06:24:40;;;;;;;10.02;2.10;;;7.50;99.90;;;;;;5396838;26;20470;-70
2024/04/25 06:27:08;;;;;;;9.10;1.77;;;7.60;99.90;;;;;;5398137;26;19999;-71
2024/04/25 06:29:35;;;;;;;8.77;1.90;;;7.60;99.90;;;;;;5373579;26;20004;-71
2024/04/25 06:32:02;;;;;;;11.38;3.78;;;7.70;99.90;;;;;;5391893;26;20007;-71
2024/04/25 06:34:30;;;;;;;4.72;1.80;;;7.70;99.90;;;;;;5393500;26;20085;-71
2024/04/25 06:36:59;;;;;;;9.90;1.80;;;7.80;99.90;;;;;;5379455;26;20000;-70
2024/04/25 06:39:26;;;;;;;6.97;1.85;;;7.80;99.90;;;;;;5382492;26;20000;-71
2024/04/25 06:41:53;;;;;;;5.53;2.10;;;7.80;99.90;;;;;;5387529;26;20005;-71
2024/04/25 06:44:25;;;;;;;8.95;1.85;;;7.90;99.90;;;;;;5401262;26;20038;-70
2024/04/25 06:47:01;;;;;;;6.05;1.85;;;7.90;99.90;;;;;;5399873;26;20281;-72
2024/04/25 06:49:28;;;;;;;7.43;1.83;;;8.00;99.90;;;;;;5385198;26;20527;-71
2024/04/25 06:51:55;;;;;;;5.53;1.52;;;8.00;99.90;;;;;;5387196;26;20009;-71
2024/04/25 06:54:22;;;;;;;6.75;1.73;;;8.00;99.90;;;;;;5379043;26;20036;-70
2024/04/25 06:56:53;;;;;;;2.92;1.50;;;8.10;99.90;;;;;;5378827;26;20004;-70
2024/04/25 06:59:20;;;;;;;8.43;1.83;;;8.10;99.90;;;;;;5382921;26;20011;-70
2024/04/25 07:01:49;;;;;;;8.20;1.70;;;8.20;99.90;;;;;;5386193;26;20004;-69
2024/04/25 07:04:17;;;;;;;8.18;1.92;;;8.20;99.90;;;;;;5399383;26;20767;-75
2024/04/25 07:06:44;;;;;;;8.93;2.28;;;8.30;99.90;;;;;;5381693;26;20004;-72
2024/04/25 07:09:11;;;;;;;7.00;1.77;;;8.40;99.90;;;;;;5382438;26;20005;-71
2024/04/25 07:11:38;;;;;;;8.32;2.55;;;8.40;99.90;;;;;;5397651;26;20003;-71
2024/04/25 07:14:05;;;;;;;7.85;1.73;;;8.50;99.90;;;;;;5394693;26;20050;-71
2024/04/25 07:16:32;;;;;;;7.68;1.58;;;8.60;99.90;;;;;;5397858;26;20003;-71
2024/04/25 07:18:59;;;;;;;9.05;2.33;;;8.70;99.90;;;;;;5385245;26;20007;-71
2024/04/25 07:21:29;;;;;;;4.95;2.08;;;8.80;99.90;;;;;;5382160;26;20073;-71
2024/04/25 07:23:56;;;;;;;10.98;2.65;;;8.80;99.90;;;;;;5391734;26;20578;-69
2024/04/25 07:26:26;;;;;;;7.22;2.15;;;8.80;99.90;;;;;;5393723;26;20329;-72
2024/04/25 07:28:55;;;;;;;10.40;3.25;;;8.80;99.90;;;;;;5389624;26;20073;-71
2024/04/25 07:31:23;;;;;;;7.13;2.35;;;8.90;99.90;;;;;;5396181;26;20048;-71
2024/04/25 07:33:50;;;;;;;4.72;2.38;;;9.00;99.90;;;;;;5387347;26;20018;-72
2024/04/25 07:36:23;;;;;;;13.10;2.65;;;9.10;99.90;;;;;;5395968;26;20115;-71
2024/04/25 07:38:50;;;;;;;10.00;3.20;;;9.20;99.90;;;;;;5395175;26;20012;-70
2024/04/25 07:41:17;;;;;;;11.77;2.80;;;9.20;99.90;;;;;;5382335;26;20833;-71
2024/04/25 07:43:44;;;;;;;10.93;3.38;;;9.30;99.90;;;;;;5396385;26;20092;-73
2024/04/25 07:46:11;;;;;;;15.95;3.20;;;9.30;99.90;;;;;;5387047;26;20471;-71
2024/04/25 07:48:40;;;;;;;11.25;2.90;;;9.20;99.90;;;;;;5389499;26;20040;-69
2024/04/25 07:51:09;;;;;;;9.25;2.80;;;9.20;99.90;;;;;;5397247;26;20015;-72
2024/04/25 07:53:36;;;;;;;25.95;5.55;;;9.10;99.90;;;;;;5382845;26;20018;-71
2024/04/25 07:56:04;;;;;;;17.05;3.88;;;9.20;99.90;;;;;;5375316;26;20351;-71
2024/04/25 07:58:31;;;;;;;14.20;4.82;;;9.20;99.90;;;;;;5381639;26;20024;-71
2024/04/25 08:00:58;;;;;;;8.88;3.08;;;9.30;99.90;;;;;;5379583;26;20070;-71
2024/04/25 08:03:25;;;;;;;9.02;3.70;;;9.30;99.90;;;;;;5392005;26;20040;-71
2024/04/25 08:05:52;;;;;;;13.23;4.20;;;9.40;99.90;;;;;;5376850;26;20070;-71
2024/04/25 08:08:19;;;;;;;11.35;3.28;;;9.40;99.90;;;;;;5386642;26;20326;-71
2024/04/25 08:10:51;;;;;;;7.25;3.20;;;9.50;99.90;;;;;;5391078;26;20015;-73
2024/04/25 08:13:18;;;;;;;9.52;3.92;;;9.60;99.90;;;;;;5399411;26;20010;-72
2024/04/25 08:15:45;;;;;;;6.63;3.33;;;9.60;99.90;;;;;;5394585;26;20579;-72
2024/04/25 08:18:13;;;;;;;11.93;4.07;;;9.70;99.90;;;;;;5395088;26;20500;-72
2024/04/25 08:20:40;;;;;;;12.38;4.38;;;9.80;99.90;;;;;;5383272;26;20035;-72
2024/04/25 08:23:07;;;;;;;11.00;3.88;;;9.90;99.90;;;;;;5395112;26;20077;-72
2024/04/25 08:25:34;;;;;;;15.75;4.32;;;10.10;99.90;;;;;;5394634;26;20004;-70
2024/04/25 08:28:01;;;;;;;16.63;5.13;;;10.10;99.90;;;;;;5389778;26;20011;-72
2024/04/25 08:30:28;;;;;;;17.45;5.47;;;10.30;99.90;;;;;;5375318;26;20303;-72
2024/04/25 08:32:56;;;;;;;14.13;4.50;;;10.40;99.90;;;;;;5382769;26;20012;-72
2024/04/25 08:35:23;;;;;;;7.97;3.67;;;10.40;99.90;;;;;;5399029;26;20022;-71
2024/04/25 08:37:50;;;;;;;16.40;4.75;;;10.40;99.90;;;;;;5380521;26;20221;-72
2024/04/25 08:40:17;;;;;;;18.70;6.45;;;10.30;99.90;;;;;;5385787;26;20085;-73
2024/04/25 08:42:49;;;;;;;10.27;4.03;;;10.40;99.90;;;;;;5381371;26;20474;-72
2024/04/25 08:45:16;;;;;;;9.18;4.22;;;10.40;99.90;;;;;;5366062;26;20022;-71
2024/04/25 08:47:43;;;;;;;17.98;4.57;;;10.40;99.90;;;;;;5394598;26;20370;-72
2024/04/25 08:50:11;;;;;;;12.35;4.32;;;10.40;99.90;;;;;;5387120;26;20018;-72
2024/04/25 08:52:43;;;;;;;15.30;4.55;;;10.40;99.90;;;;;;5385845;26;20016;-71
2024/04/25 08:55:11;;;;;;;15.15;4.85;;;10.40;99.90;;;;;;5376458;26;20004;-72
2024/04/25 08:57:38;;;;;;;14.45;4.43;;;10.40;99.90;;;;;;5360426;26;20008;-72
2024/04/25 09:00:05;;;;;;;7.65;4.10;;;10.50;99.90;;;;;;5371829;26;20515;-72
2024/04/25 09:02:34;;;;;;;16.38;5.68;;;10.60;99.90;;;;;;5385183;26;20463;-72
2024/04/25 09:05:02;;;;;;;9.40;4.07;;;10.60;99.90;;;;;;5402141;26;20069;-71
2024/04/25 09:07:29;;;;;;;16.58;5.35;;;10.70;99.90;;;;;;5396052;26;20004;-72
2024/04/25 09:09:56;;;;;;;8.05;3.63;;;10.70;99.90;;;;;;5420488;26;20000;-73
2024/04/25 09:12:26;;;;;;;14.50;4.30;;;10.80;99.90;;;;;;5391277;26;20018;-72
2024/04/25 09:14:53;;;;;;;12.77;4.30;;;10.70;99.90;;;;;;5382204;26;20011;-72
2024/04/25 09:17:20;;;;;;;13.15;3.80;;;10.50;99.90;;;;;;5371611;26;20544;-72
2024/04/25 09:19:47;;;;;;;18.20;4.90;;;10.60;99.90;;;;;;5385885;26;20188;-71
2024/04/25 09:22:14;;;;;;;6.95;2.88;;;10.60;99.90;;;;;;5396089;26;20074;-72
2024/04/25 09:24:41;;;;;;;9.05;3.72;;;10.70;99.90;;;;;;5387813;26;20004;-71
2024/04/25 09:27:08;;;;;;;11.23;3.30;;;10.60;99.90;;;;;;5391964;26;20048;-72
2024/04/25 09:29:35;;;;;;;9.52;3.05;;;10.80;99.90;;;;;;5382130;26;20420;-71
2024/04/25 09:32:02;;;;;;;9.27;3.33;;;10.90;99.90;;;;;;5404623;26;20003;-71
2024/04/25 09:34:29;;;;;;;9.88;3.08;;;11.00;99.90;;;;;;5404311;26;19996;-71
2024/04/25 09:36:56;;;;;;;11.35;2.30;;;11.00;99.90;;;;;;5399274;26;20040;-71
2024/04/25 09:39:23;;;;;;;9.73;2.25;;;11.20;99.90;;;;;;5391219;26;20000;-72
2024/04/25 09:41:50;;;;;;;7.65;2.92;;;11.30;99.90;;;;;;5383565;26;20045;-71
2024/04/25 09:47:49;;;;;;;15.82;3.35;;;11.80;99.90;;;;;;5429598;26;20377;-58
2024/04/25 09:50:21;;;;;;;6.55;2.47;;;11.80;99.90;;;;;;5399926;26;20010;-57
2024/04/25 09:52:56;;;;;;;13.55;3.50;;;12.20;99.90;;;;;;5386993;26;20007;-60
2024/04/25 09:55:40;;;;;;;15.95;3.13;;;12.60;99.90;;;;;;5422887;26;20441;-59
2024/04/25 09:58:13;;;;;;;10.35;2.83;;;12.70;99.90;;;;;;5367512;26;20003;-64
2024/04/25 10:00:40;;;;;;;14.48;2.92;;;12.70;99.90;;;;;;5439128;26;20071;-59
2024/04/25 10:03:07;;;;;;;9.57;2.92;;;12.60;99.90;;;;;;5437434;26;20018;-58
2024/04/25 10:05:34;;;;;;;12.73;3.17;;;12.70;99.90;;;;;;5396478;26;20459;-59
2024/04/25 10:08:01;;;;;;;12.90;3.53;;;12.70;99.90;;;;;;5405777;26;20006;-58
2024/04/25 10:10:28;;;;;;;6.45;3.08;;;12.40;99.90;;;;;;5407225;26;20010;-58
2024/04/25 10:12:58;;;;;;;13.68;3.45;;;12.30;99.90;;;;;;5438790;26;20003;-61
2024/04/25 10:15:28;;;;;;;9.10;4.00;;;12.40;99.90;;;;;;5433093;26;19999;-57
2024/04/25 10:17:55;;;;;;;9.40;4.13;;;12.30;99.90;;;;;;5405953;26;20131;-58
2024/04/25 10:20:23;;;;;;;9.27;4.15;;;12.20;99.90;;;;;;5435962;26;20410;-58
2024/04/25 10:22:57;;;;;;;16.95;4.45;;;11.90;99.90;;;;;;5377723;26;20007;-58
2024/04/25 10:25:24;;;;;;;18.15;4.43;;;11.80;99.90;;;;;;5436397;26;20084;-58
2024/04/25 10:28:01;;;;;;;12.10;5.13;;;11.70;99.90;;;;;;5434285;26;20002;-58
2024/04/25 10:30:28;;;;;;;17.15;5.07;;;11.60;99.90;;;;;;5431830;26;20002;-58
2024/04/25 10:32:56;;;;;;;15.20;5.20;;;11.70;99.90;;;;;;5431326;26;20013;-58
2024/04/25 10:35:23;;;;;;;12.10;4.60;;;11.60;99.90;;;;;;5441590;26;20010;-58
2024/04/25 10:37:50;;;;;;;13.48;4.20;;;11.40;99.90;;;;;;5406157;26;20050;-56
2024/04/25 10:40:17;;;;;;;13.05;4.60;;;11.20;99.90;;;;;;5433930;26;21551;-59
2024/04/25 10:42:54;;;;;;;16.80;4.40;;;11.30;99.90;;;;;;5428839;26;20014;-59
2024/04/25 10:45:23;;;;;;;8.13;3.28;;;11.30;99.90;;;;;;5437993;26;20003;-58
2024/04/25 10:47:50;;;;;;;6.10;3.03;;;11.40;99.90;;;;;;5388530;26;20065;-57
2024/04/25 10:50:17;;;;;;;8.35;3.00;;;11.40;99.90;;;;;;5398720;26;20003;-57
2024/04/25 10:52:44;;;;;;;7.82;2.42;;;11.40;99.90;;;;;;5405196;26;20010;-60
2024/04/25 10:55:11;;;;;;;12.05;3.38;;;11.50;99.90;;;;;;5410436;26;20002;-59
2024/04/25 10:57:38;;;;;;;11.18;3.47;;;11.60;99.90;;;;;;5431062;26;20007;-58
2024/04/25 11:00:07;;;;;;;10.90;3.08;;;11.70;99.90;;;;;;5395233;26;20469;-59
2024/04/25 11:02:34;;;;;;;11.65;3.83;;;11.90;99.90;;;;;;5433653;26;19996;-58
2024/04/25 11:05:02;;;;;;;8.43;3.50;;;12.10;99.90;;;;;;5429842;26;20134;-59
2024/04/25 11:07:29;;;;;;;17.05;4.38;;;12.30;99.90;;;;;;5427285;26;20465;-59
2024/04/25 11:09:56;;;;;;;8.75;3.55;;;12.40;99.90;;;;;;5432445;26;20044;-60
2024/04/25 11:12:23;;;;;;;13.77;4.47;;;12.40;99.60;;;;;;5439227;26;20003;-58
2024/04/25 11:14:51;;;;;;;13.02;4.35;;;12.30;99.90;;;;;;5441951;26;20010;-58
2024/04/25 11:17:18;;;;;;;11.52;3.45;;;12.30;99.90;;;;;;5440155;26;20013;-58
2024/04/25 11:19:45;;;;;;;11.15;3.85;;;12.40;99.60;;;;;;5421989;26;19999;-58
2024/04/25 11:22:16;;;;;;;8.65;3.50;;;12.30;99.70;;;;;;5433761;26;20083;-59
2024/04/25 11:25:17;;;;;;;11.73;4.22;;;12.50;99.90;;;;;;5437532;26;20336;-62
2024/04/25 11:27:45;;;;;;;11.13;4.93;;;12.50;99.60;;;;;;5436116;26;20019;-56
2024/04/25 11:30:13;;;;;;;7.93;3.08;;;12.40;99.70;;;;;;5383524;26;20014;-61
2024/04/25 11:32:39;;;;;;;16.02;3.28;;;12.40;99.40;;;;;;5426831;26;20013;-59
2024/04/25 11:35:10;;;;;;;14.73;3.22;;;12.30;98.60;;;;;;5397123;26;20013;-58
2024/04/25 11:37:40;;;;;;;7.68;3.10;;;12.40;98.30;;;;;;5427720;26;20046;-58
2024/04/25 11:40:07;;;;;;;13.93;3.45;;;12.20;99.60;;;;;;5424230;26;20014;-59
2024/04/25 11:42:35;;;;;;;14.88;3.85;;;12.20;98.50;;;;;;5433764;26;20076;-58
2024/04/25 11:45:02;;;;;;;8.32;3.58;;;12.30;99.50;;;;;;5406307;26;20446;-58
2024/04/25 11:47:29;;;;;;;7.32;2.92;;;12.20;98.50;;;;;;5440015;26;20073;-58
2024/04/25 11:49:56;;;;;;;5.75;2.50;;;12.20;99.10;;;;;;5396863;26;20011;-59
2024/04/25 11:52:23;;;;;;;10.52;3.40;;;12.20;98.40;;;;;;5438441;26;20076;-56
2024/04/25 11:54:50;;;;;;;10.57;2.97;;;12.20;99.60;;;;;;5426908;26;20164;-58
2024/04/25 11:57:17;;;;;;;11.48;2.72;;;12.10;99.10;;;;;;5440975;26;20538;-58
2024/04/25 11:59:44;;;;;;;11.70;2.65;;;11.80;99.00;;;;;;5437049;26;20046;-58
2024/04/25 12:02:13;;;;;;;8.30;2.75;;;11.70;99.00;;;;;;5434461;26;20007;-57
2024/04/25 12:04:40;;;;;;;7.38;2.92;;;11.50;98.40;;;;;;5440591;26;20548;-58
2024/04/25 12:07:07;;;;;;;14.43;3.30;;;11.40;99.20;;;;;;5388752;26;20427;-58
2024/04/25 12:09:34;;;;;;;10.80;2.67;;;11.50;99.70;;;;;;5440648;26;20306;-57
2024/04/25 12:12:01;;;;;;;9.05;2.38;;;11.40;99.30;;;;;;5422962;26;20583;-57
2024/04/25 12:14:28;;;;;;;9.90;3.17;;;11.50;99.80;;;;;;5438540;26;19999;-57
2024/04/25 12:16:55;;;;;;;18.75;3.25;;;11.60;99.60;;;;;;5427185;26;20018;-57
2024/04/25 12:19:22;;;;;;;7.90;2.40;;;11.50;99.80;;;;;;5426686;26;20003;-58
2024/04/25 12:21:49;;;;;;;11.00;2.60;;;11.40;99.40;;;;;;5439981;26;20082;-57
2024/04/25 12:24:16;;;;;;;9.20;3.38;;;11.60;99.90;;;;;;5432143;26;20034;-58
2024/04/25 12:26:44;;;;;;;11.30;2.97;;;11.60;99.30;;;;;;5420295;26;20003;-58
2024/04/25 12:29:11;;;;;;;15.13;2.83;;;11.60;99.90;;;;;;5421289;26;20010;-59
2024/04/25 12:31:38;;;;;;;14.65;3.13;;;11.80;99.90;;;;;;5434822;26;20003;-58
2024/04/25 12:34:05;;;;;;;8.43;2.85;;;11.90;99.90;;;;;;5423979;26;20157;-58
2024/04/25 12:36:38;;;;;;;7.53;2.90;;;12.00;99.90;;;;;;5419331;26;20011;-62
2024/04/25 12:39:06;;;;;;;8.55;2.80;;;11.80;99.90;;;;;;5437410;26;19999;-57
2024/04/25 12:41:32;;;;;;;12.85;2.92;;;11.70;99.80;;;;;;5436789;26;20036;-57
2024/04/25 12:44:00;;;;;;;7.50;2.70;;;11.70;99.90;;;;;;5437796;26;20065;-58
2024/04/25 12:46:26;;;;;;;9.77;3.38;;;11.50;99.90;;;;;;5388225;26;20056;-54
2024/04/25 12:48:53;;;;;;;12.07;2.80;;;11.50;99.90;;;;;;5435186;26;20014;-59
2024/04/25 12:51:22;;;;;;;7.28;2.50;;;11.60;99.90;;;;;;5419544;26;20027;-57
2024/04/25 12:53:49;;;;;;;7.13;2.38;;;11.80;99.90;;;;;;5423851;26;20456;-57
2024/04/25 12:56:16;;;;;;;8.75;3.00;;;12.00;99.80;;;;;;5437628;26;19999;-57
2024/04/25 12:58:43;;;;;;;12.27;2.72;;;12.10;99.90;;;;;;5438345;26;20014;-58